Yorkville, Illinois
Current Conditions -  °F | °C
As of 7:52 PM on Saturday 20 Dec 2014 (Local Time) from KARR Reporting Station
Haze Haze  
Wind Chill: 26°   Ceiling: 3400
Heat Index: 32°   Visibility: 6mi
Dew Point: 26°   Wind: 7mph
Humidity: 79%   Direction: 160°SSE
Pressure: 30.26"   Gusts: NA
Location:  41.64°N, 88.45°W
Report Text: KARR 210152Z 16006KT 6SM HZ OVC034 00/M03 A3026 RMK AO2 SLP255 T00001033
Loading
Personal Weather Stations






























Interactive Weather Map New forecast layout! Learn more

10-Day Weather Forecast

Advertisements
Track Severe Weather on mobile